Time;durP1;ratioP1;P1;durP2;ratioP2;P2;SDS_P1;SDS_P2;PMS_P1;PMS_P2;Temp;Humidity;BMP_temperature;BMP_pressure;BME280_temperature;BME280_humidity;BME280_pressure;Samples;Min_cycle;Max_cycle;Signal;HPM_P1;HPM_P2
2021/07/03 00:00:28;;;;;;;13.88;9.70;;;13.90;99.90;;;12.41;90.99;101355.59;3510344;39;102348;-42
2021/07/03 00:02:56;;;;;;;13.20;8.55;;;13.90;99.90;;;12.40;91.16;101356.63;3510555;40;102398;-41
2021/07/03 00:05:23;;;;;;;13.73;8.90;;;13.90;99.90;;;12.38;91.21;101353.28;3510250;40;102316;-41
2021/07/03 00:07:50;;;;;;;13.35;8.93;;;13.90;99.90;;;12.36;91.14;101360.84;3510284;39;102653;-42
2021/07/03 00:10:19;;;;;;;13.95;8.90;;;13.80;99.90;;;12.33;91.13;101356.66;3510343;40;102299;-42
2021/07/03 00:12:46;;;;;;;15.52;9.38;;;13.80;99.90;;;12.33;91.24;101355.81;3510182;40;102180;-44
2021/07/03 00:15:23;;;;;;;14.32;8.27;;;13.80;99.90;;;12.29;90.90;101352.66;3509798;40;102219;-42
2021/07/03 00:17:53;;;;;;;13.00;8.73;;;13.80;99.90;;;12.28;90.85;101350.13;3509848;40;104286;-41
2021/07/03 00:20:23;;;;;;;13.68;8.52;;;13.70;99.90;;;12.24;90.95;101357.91;3510187;40;104269;-43
2021/07/03 00:22:53;;;;;;;13.48;8.95;;;13.70;99.90;;;12.24;90.81;101363.38;3510058;40;102571;-45
2021/07/03 00:25:22;;;;;;;14.20;8.70;;;13.70;99.90;;;12.21;91.17;101359.19;3509779;40;104160;-41
2021/07/03 00:27:50;;;;;;;14.07;8.98;;;13.70;99.90;;;12.21;90.91;101369.28;3509943;39;102547;-42
2021/07/03 00:30:17;;;;;;;;;;;13.70;99.90;;;12.19;91.06;101357.72;3511240;39;103248;-42
2021/07/03 00:32:45;;;;;;;13.10;8.90;;;13.70;99.90;;;12.18;90.74;101351.38;3510280;40;102252;-42
2021/07/03 00:35:13;;;;;;;14.95;8.35;;;13.60;99.90;;;12.18;91.20;101353.28;3510205;40;103120;-44
2021/07/03 00:37:41;;;;;;;14.02;8.85;;;13.60;99.90;;;12.15;91.58;101353.72;3510245;40;102586;-41
2021/07/03 00:40:10;;;;;;;;;;;13.60;99.90;;;12.13;91.56;101359.38;3517682;40;103232;-42
2021/07/03 00:42:38;;;;;;;12.43;7.93;;;13.60;99.90;;;12.10;91.31;101362.53;3509979;40;102675;-43
2021/07/03 00:45:06;;;;;;;;;;;13.60;99.90;;;12.08;91.55;101356.44;3517984;40;102258;-41
2021/07/03 00:47:35;;;;;;;12.30;8.20;;;13.60;99.90;;;12.06;91.28;101361.28;3509861;40;102192;-44
2021/07/03 00:50:09;;;;;;;12.45;8.02;;;13.60;99.90;;;12.04;91.25;101361.47;3510125;40;104107;-42
2021/07/03 00:52:41;;;;;;;15.07;8.35;;;13.50;99.90;;;12.03;91.09;101358.97;3509949;40;103309;-41
2021/07/03 00:55:16;;;;;;;11.65;7.88;;;13.50;99.90;;;12.00;91.29;101364.81;3510003;40;103450;-41
2021/07/03 00:57:45;;;;;;;11.63;7.93;;;13.50;99.90;;;11.97;91.50;101368.81;3517274;40;104244;-42
2021/07/03 01:00:16;;;;;;;14.18;8.80;;;13.50;99.90;;;11.96;91.45;101363.56;3508816;40;104085;-42
2021/07/03 01:02:45;;;;;;;12.55;7.45;;;13.50;99.90;;;11.94;91.50;101361.88;3638735;22;104376;-40
2021/07/03 01:05:13;;;;;;;;;;;13.50;99.90;;;11.96;91.42;101360.84;3509077;40;103345;-40
2021/07/03 01:07:42;;;;;;;13.00;8.65;;;13.50;99.90;;;11.96;91.76;101352.63;3509790;40;102859;-40
2021/07/03 01:10:29;;;;;;;13.05;8.38;;;13.40;99.90;;;11.91;92.10;101354.06;3509074;40;104738;-40
2021/07/03 01:13:04;;;;;;;13.40;8.30;;;13.40;99.90;;;11.89;91.85;101353.44;3507327;40;103302;-40
2021/07/03 01:15:33;;;;;;;12.18;7.65;;;13.40;99.90;;;11.87;91.81;101346.50;3499035;40;102163;-40
2021/07/03 01:18:02;;;;;;;11.73;8.25;;;13.40;99.90;;;11.81;91.89;101350.91;3500154;40;102335;-40
2021/07/03 01:20:29;;;;;;;13.00;8.25;;;13.30;99.90;;;11.81;91.52;101356.38;3491118;40;103146;-40
2021/07/03 01:22:57;;;;;;;12.93;8.10;;;13.30;99.90;;;11.78;91.64;101356.81;3499085;40;102471;-40
2021/07/03 01:25:26;;;;;;;12.25;8.02;;;13.30;99.90;;;11.75;91.23;101351.75;3499607;40;105460;-40
2021/07/03 01:28:06;;;;;;;12.75;8.15;;;13.30;99.90;;;11.74;91.45;101352.81;3499120;40;102390;-40
2021/07/03 01:30:39;;;;;;;11.80;7.53;;;13.20;99.90;;;11.61;91.65;101334.50;3500177;40;104136;-40
2021/07/03 01:33:07;;;;;;;11.02;7.50;;;13.20;99.90;;;11.68;91.43;101348.19;3499337;40;102455;-40
2021/07/03 01:35:35;;;;;;;11.50;7.80;;;13.20;99.90;;;11.61;91.85;101339.94;3499743;40;103436;-40
2021/07/03 01:38:16;;;;;;;12.82;7.78;;;13.20;99.90;;;11.61;91.70;101346.25;3500481;40;102228;-40
2021/07/03 01:40:45;;;;;;;14.32;8.48;;;13.10;99.90;;;11.55;91.63;101336.16;3498871;40;103299;-40
2021/07/03 01:43:23;;;;;;;13.05;7.97;;;13.10;99.90;;;11.58;91.99;101345.84;3490857;40;103405;-40
2021/07/03 01:45:54;;;;;;;12.63;7.78;;;13.10;99.90;;;11.56;91.83;101354.22;3499587;40;102309;-40
2021/07/03 01:48:32;;;;;;;11.07;7.32;;;13.10;99.90;;;11.49;91.79;101337.81;3500700;40;102582;-40
2021/07/03 01:51:04;;;;;;;14.48;7.80;;;13.00;99.90;;;11.49;91.63;101343.28;3498933;40;103162;-40
2021/07/03 01:53:32;;;;;;;10.98;7.40;;;13.00;99.90;;;11.48;91.70;101348.97;3500076;40;102313;-40
2021/07/03 01:56:02;;;;;;;11.50;7.95;;;13.00;99.90;;;11.41;91.62;101351.66;3498642;40;105066;-40
2021/07/03 01:58:32;;;;;;;11.68;7.35;;;13.00;99.90;;;11.45;91.78;101358.41;3500156;40;102229;-39
2021/07/03 02:01:12;;;;;;;12.07;7.90;;;12.90;99.90;;;11.40;91.93;101349.13;3498744;40;103234;-40
2021/07/03 02:03:45;;;;;;;11.75;7.93;;;13.00;99.90;;;11.43;91.79;101352.28;3490589;40;103440;-42
2021/07/03 02:06:21;;;;;;;12.70;7.57;;;13.00;99.90;;;11.43;92.16;101351.47;3499739;40;103959;-40
2021/07/03 02:08:48;;;;;;;12.82;7.88;;;12.90;99.90;;;11.41;92.59;101353.56;3499732;40;102463;-40
2021/07/03 02:11:17;;;;;;;10.93;6.90;;;12.90;99.90;;;11.38;92.61;101357.53;3500173;40;102279;-40
2021/07/03 02:13:50;;;;;;;13.60;7.53;;;12.90;99.90;;;11.36;92.58;101352.28;3499779;40;102074;-40
2021/07/03 02:16:24;;;;;;;10.32;7.70;;;12.90;99.90;;;11.34;92.54;101356.28;3499664;40;102144;-40
2021/07/03 02:18:53;;;;;;;10.95;7.28;;;12.80;99.90;;;11.32;92.76;101359.19;3499548;40;102506;-40
2021/07/03 02:21:29;;;;;;;12.98;8.38;;;12.80;99.90;;;11.29;92.45;101359.59;3498710;40;103878;-41
2021/07/03 02:23:56;;;;;;;12.52;7.72;;;12.80;99.90;;;11.29;92.36;101362.34;3499753;40;102444;-39
2021/07/03 02:26:25;;;;;;;13.52;7.97;;;12.80;99.90;;;11.25;92.41;101350.13;3499658;40;102438;-40
2021/07/03 02:28:53;;;;;;;12.75;8.35;;;12.80;99.90;;;11.24;92.59;101356.66;3498442;40;105061;-40
2021/07/03 02:31:27;;;;;;;11.57;7.57;;;12.70;99.90;;;11.23;92.74;101352.22;3498420;40;103318;-40
2021/07/03 02:34:00;;;;;;;11.23;7.25;;;12.80;99.90;;;11.21;92.51;101357.88;3498469;40;102462;-39
2021/07/03 02:36:27;;;;;;;11.27;8.02;;;12.70;99.90;;;11.22;92.78;101366.94;3499718;40;102307;-40
2021/07/03 02:38:56;;;;;;;13.07;8.27;;;12.70;99.90;;;11.18;92.71;101360.19;3498728;40;102485;-39
2021/07/03 02:41:33;;;;;;;13.68;7.82;;;12.70;99.90;;;11.21;93.00;101368.81;3498367;40;104216;-40
2021/07/03 02:44:02;;;;;;;14.40;8.48;;;12.70;99.90;;;11.22;92.62;101362.31;3499502;40;102378;-39
2021/07/03 02:46:31;;;;;;;12.57;8.10;;;12.70;99.90;;;11.19;92.60;101357.25;3499974;40;102219;-39
2021/07/03 02:48:59;;;;;;;;;;;12.70;99.90;;;11.18;93.09;101355.56;3499889;40;102324;-40
2021/07/03 02:51:26;;;;;;;12.77;7.93;;;12.70;99.90;;;11.16;92.73;101359.56;3500111;40;103049;-40
2021/07/03 02:53:55;;;;;;;13.50;8.55;;;12.70;99.90;;;11.16;93.18;101360.38;3500685;40;102573;-39
2021/07/03 02:56:22;;;;;;;10.98;7.35;;;12.60;99.90;;;11.14;93.18;101357.03;3500643;40;104156;-40
2021/07/03 02:58:50;;;;;;;13.60;8.73;;;12.70;99.90;;;11.15;92.54;101355.16;3500917;40;102255;-40
2021/07/03 03:01:17;;;;;;;14.18;8.27;;;12.70;99.90;;;11.15;92.70;101346.97;3500857;40;102341;-40
2021/07/03 03:03:45;;;;;;;12.30;8.13;;;12.70;99.90;;;11.13;93.40;101346.28;3491611;40;102578;-40
2021/07/03 03:06:15;;;;;;;16.85;8.15;;;12.70;99.90;;;11.10;93.52;101349.44;3500609;40;103158;-40
2021/07/03 03:08:47;;;;;;;12.30;7.95;;;12.60;99.90;;;11.08;93.55;101347.75;3500532;40;102131;-40
2021/07/03 03:11:17;;;;;;;13.52;8.32;;;12.60;99.90;;;11.05;93.44;101341.88;3500628;40;102808;-39
2021/07/03 03:13:46;;;;;;;13.40;7.35;;;12.60;99.90;;;11.04;93.33;101351.94;3500674;40;102208;-40
2021/07/03 03:16:16;;;;;;;12.55;8.07;;;12.50;99.90;;;11.02;93.31;101345.84;3499756;40;102370;-40
2021/07/03 03:18:44;;;;;;;11.27;7.05;;;12.60;99.90;;;11.01;93.01;101341.41;3500568;40;103187;-41
2021/07/03 03:21:12;;;;;;;;;;;12.50;99.90;;;11.01;93.02;101344.16;3501129;40;104544;-41
2021/07/03 03:23:40;;;;;;;11.82;7.18;;;12.50;99.90;;;11.02;93.18;101339.53;3499694;40;102263;-40
2021/07/03 03:26:09;;;;;;;10.70;6.35;;;12.50;99.90;;;11.01;93.03;101340.59;3491427;40;103216;-40
2021/07/03 03:28:42;;;;;;;11.57;7.30;;;12.50;99.90;;;11.02;93.12;101334.09;3500819;40;102100;-40
2021/07/03 03:31:10;;;;;;;15.80;7.57;;;12.50;99.90;;;11.02;93.23;101326.72;3500991;40;102211;-40
2021/07/03 03:33:42;;;;;;;10.80;7.15;;;12.50;99.90;;;11.03;93.19;101327.59;3500371;40;104506;-40
2021/07/03 03:36:15;;;;;;;11.07;6.63;;;12.50;99.90;;;11.06;93.56;101311.63;3500706;40;102623;-40
2021/07/03 03:38:44;;;;;;;11.85;6.97;;;12.50;99.90;;;11.09;93.45;101310.38;3499700;40;102442;-40
2021/07/03 03:41:12;;;;;;;;;;;12.60;99.90;;;11.06;93.88;101297.97;3500204;40;104486;-40
2021/07/03 03:43:40;;;;;;;12.65;8.35;;;12.60;99.90;;;11.16;93.60;101308.50;3500648;40;102395;-41
2021/07/03 03:46:11;;;;;;;14.75;8.25;;;12.60;99.90;;;11.19;93.67;101310.81;3500237;40;103465;-40
2021/07/03 03:48:41;;;;;;;11.10;7.03;;;12.70;99.90;;;11.25;93.66;101309.16;3499437;40;102264;-39
2021/07/03 03:51:11;;;;;;;13.27;7.90;;;12.70;99.90;;;11.29;93.85;101310.44;3499506;40;105576;-40
2021/07/03 03:53:40;;;;;;;12.85;8.23;;;12.70;99.90;;;11.34;93.78;101307.94;3500598;40;102189;-40
2021/07/03 03:56:08;;;;;;;15.30;9.52;;;12.80;99.90;;;11.40;93.84;101302.69;3499168;40;102181;-40
2021/07/03 03:58:41;;;;;;;13.63;9.45;;;12.80;99.90;;;11.47;93.86;101300.81;3499490;40;102622;-40
2021/07/03 04:01:09;;;;;;;14.55;9.18;;;12.90;99.90;;;11.54;94.05;101298.09;3500856;40;104431;-39
2021/07/03 04:03:36;;;;;;;13.05;8.60;;;12.90;99.90;;;11.60;94.09;101303.56;3500352;40;102549;-41
2021/07/03 04:06:04;;;;;;;;;;;13.00;99.90;;;11.68;94.18;101301.72;3499981;40;103257;-40
2021/07/03 04:08:34;;;;;;;16.38;9.13;;;13.00;99.90;;;11.74;94.02;101296.22;3500017;40;102373;-39
2021/07/03 04:11:03;;;;;;;17.85;10.88;;;13.10;99.90;;;11.86;94.20;101298.34;3500809;40;104131;-40
2021/07/03 04:13:31;;;;;;;16.15;10.30;;;13.20;99.90;;;11.94;94.12;101296.25;3500163;40;102166;-40
2021/07/03 04:15:59;;;;;;;14.75;9.85;;;13.30;99.90;;;12.02;94.13;101299.88;3500576;40;103110;-40
2021/07/03 04:18:26;;;;;;;17.40;10.23;;;13.30;99.90;;;12.06;94.09;101293.75;3500583;40;102330;-40
2021/07/03 04:20:54;;;;;;;15.40;9.98;;;13.40;99.90;;;12.16;94.22;101293.31;3500566;40;103244;-41
2021/07/03 04:23:22;;;;;;;14.80;9.85;;;13.50;99.90;;;12.23;94.20;101294.16;3500021;40;102379;-42
2021/07/03 04:25:50;;;;;;;18.83;10.20;;;13.50;99.90;;;12.26;94.16;101292.88;3499836;40;102407;-40
2021/07/03 04:28:17;;;;;;;14.93;9.93;;;13.60;99.90;;;12.33;94.26;101292.88;3500115;40;102383;-40
2021/07/03 04:30:45;;;;;;;16.08;9.43;;;13.70;99.90;;;12.39;94.28;101297.50;3500183;40;103283;-39
2021/07/03 04:33:13;;;;;;;13.98;9.35;;;13.70;99.90;;;12.48;94.26;101298.97;3500313;40;102522;-40
2021/07/03 04:35:40;;;;;;;16.75;10.20;;;13.80;99.90;;;12.60;94.66;101301.03;3500435;40;102283;-39
2021/07/03 04:38:08;;;;;;;18.38;10.45;;;13.90;99.90;;;12.70;94.64;101295.13;3500865;40;102265;-40
2021/07/03 04:40:36;;;;;;;14.23;9.02;;;14.00;99.90;;;12.84;94.80;101299.47;3500330;40;102246;-39
2021/07/03 04:43:04;;;;;;;14.50;9.95;;;14.10;99.90;;;12.99;95.04;101293.72;3500257;40;102325;-40
2021/07/03 04:45:31;;;;;;;17.02;9.90;;;14.20;99.90;;;13.18;95.24;101288.38;3500044;40;102269;-40
2021/07/03 04:47:59;;;;;;;17.50;10.57;;;14.40;99.90;;;13.36;95.44;101283.03;3500075;40;103025;-40
2021/07/03 04:50:26;;;;;;;;;;;14.50;99.90;;;13.56;94.91;101289.47;3500026;40;102291;-40
2021/07/03 04:52:57;;;;;;;17.92;9.88;;;14.70;99.90;;;13.75;94.57;101290.38;3500294;40;102569;-40
2021/07/03 04:55:25;;;;;;;18.27;11.32;;;14.90;99.90;;;13.98;94.42;101289.78;3500166;40;102377;-40
2021/07/03 04:57:52;;;;;;;16.15;10.05;;;15.10;99.90;;;14.20;93.68;101295.72;3500186;40;102217;-40
2021/07/03 05:00:20;;;;;;;15.60;10.25;;;15.30;99.90;;;14.39;93.18;101293.84;3500333;40;102428;-40
2021/07/03 05:02:48;;;;;;;15.38;9.65;;;15.50;99.90;;;14.49;92.97;101290.56;3500317;40;102325;-40
2021/07/03 05:05:15;;;;;;;17.25;10.05;;;15.50;99.90;;;14.56;92.07;101287.75;3499970;40;105012;-40
2021/07/03 05:07:44;;;;;;;15.35;9.45;;;15.70;99.90;;;14.65;92.08;101293.78;3500229;40;102364;-40
2021/07/03 05:10:16;;;;;;;16.13;9.23;;;15.70;99.90;;;14.78;91.46;101296.41;3491440;40;102303;-40
2021/07/03 05:12:43;;;;;;;;;;;15.90;99.90;;;14.93;91.28;101295.19;3501062;40;102471;-40
2021/07/03 05:15:12;;;;;;;13.88;8.25;;;16.00;99.90;;;15.00;90.73;101293.19;3499675;40;102306;-40
2021/07/03 05:17:39;;;;;;;16.30;9.07;;;16.10;99.90;;;15.08;90.66;101290.13;3499974;40;103412;-40
2021/07/03 05:20:08;;;;;;;14.60;9.77;;;16.20;99.90;;;15.27;90.33;101292.84;3500512;40;102159;-40
2021/07/03 05:22:35;;;;;;;14.30;9.10;;;16.30;99.90;;;15.48;89.85;101288.72;3499941;40;102412;-40
2021/07/03 05:25:04;;;;;;;14.38;8.93;;;16.50;99.90;;;15.65;89.40;101294.41;3499471;40;102306;-40
2021/07/03 05:27:31;;;;;;;13.82;9.07;;;16.70;99.90;;;15.77;87.39;101299.91;3500285;40;102223;-39
2021/07/03 05:29:59;;;;;;;14.02;8.68;;;16.80;99.90;;;15.93;86.73;101300.34;3500469;40;104012;-40
2021/07/03 05:32:26;;;;;;;12.88;8.38;;;17.00;99.90;;;16.12;86.08;101306.56;3500141;40;102436;-40
2021/07/03 05:34:54;;;;;;;12.00;8.07;;;17.10;99.90;;;16.32;84.01;101305.41;3500059;40;102160;-41
2021/07/03 05:37:21;;;;;;;12.30;8.20;;;17.30;99.90;;;16.52;82.91;101318.78;3500108;40;103043;-40
2021/07/03 05:39:49;;;;;;;12.95;8.02;;;17.40;99.90;;;16.65;80.92;101303.94;3499875;40;104119;-40
2021/07/03 05:42:16;;;;;;;15.65;7.75;;;17.60;99.90;;;16.70;78.72;101309.53;3500004;40;102438;-40
2021/07/03 05:44:44;;;;;;;12.85;8.63;;;17.70;99.90;;;16.88;79.46;101307.72;3499585;40;104229;-40
2021/07/03 05:47:11;;;;;;;12.40;7.75;;;17.80;99.90;;;17.02;78.33;101302.81;3500172;40;103218;-41
2021/07/03 05:49:41;;;;;;;12.43;8.00;;;17.90;99.90;;;17.10;78.54;101297.75;3499983;40;103307;-40
2021/07/03 05:52:08;;;;;;;11.65;7.72;;;18.10;99.90;;;17.32;78.43;101310.84;3499489;40;102342;-47
2021/07/03 05:54:36;;;;;;;14.10;7.75;;;18.20;99.90;;;17.50;78.77;101306.19;3499893;40;104148;-40
2021/07/03 05:57:03;;;;;;;14.30;7.93;;;18.40;99.90;;;17.59;76.35;101299.22;3500146;40;102886;-40
2021/07/03 05:59:31;;;;;;;13.98;7.80;;;18.50;99.90;;;17.74;75.65;101292.28;3500298;40;103380;-41
2021/07/03 06:01:58;;;;;;;11.85;7.95;;;18.60;99.90;;;17.89;74.08;101291.72;3500358;40;102781;-41
2021/07/03 06:04:26;;;;;;;12.07;7.30;;;18.70;99.90;;;18.09;74.89;101289.31;3499465;40;102202;-40
2021/07/03 06:06:53;;;;;;;11.48;7.82;;;18.90;99.90;;;18.18;73.16;101306.28;3500079;40;102067;-41
2021/07/03 06:09:21;;;;;;;11.43;7.88;;;19.00;99.90;;;18.36;71.79;101301.59;3500328;40;102790;-40
2021/07/03 06:11:48;;;;;;;12.05;7.45;;;19.20;99.90;;;18.52;72.30;101297.13;3499747;40;102379;-40
2021/07/03 06:14:16;;;;;;;12.13;7.40;;;19.30;99.90;;;18.87;73.70;101295.94;3499637;40;103318;-41
2021/07/03 06:16:43;;;;;;;12.27;7.68;;;19.60;99.90;;;19.07;71.36;101295.38;3499862;40;102445;-40
2021/07/03 06:19:11;;;;;;;13.85;7.50;;;19.80;99.90;;;19.13;68.25;101292.69;3499486;40;102869;-40
2021/07/03 06:21:38;;;;;;;11.35;7.13;;;19.90;99.90;;;19.17;69.04;101288.31;3500080;40;102280;-41
2021/07/03 06:24:08;;;;;;;11.55;7.95;;;20.00;99.90;;;19.14;70.02;101291.59;3499596;40;103290;-41
2021/07/03 06:26:35;;;;;;;11.55;7.22;;;20.00;99.90;;;19.10;70.72;101288.50;3499887;40;102866;-40
2021/07/03 06:29:02;;;;;;;10.45;6.32;;;20.00;99.90;;;19.19;70.84;101286.09;3500899;40;103422;-40
2021/07/03 06:31:30;;;;;;;10.40;7.55;;;20.10;99.90;;;19.19;71.11;101286.09;3500961;40;102161;-40
2021/07/03 06:33:58;;;;;;;9.48;6.35;;;20.00;99.90;;;19.24;70.65;101287.00;3500491;40;102306;-39
2021/07/03 06:36:25;;;;;;;10.27;7.03;;;20.10;99.90;;;19.36;67.85;101286.00;3500982;40;102349;-40
2021/07/03 06:38:53;;;;;;;10.75;7.25;;;20.20;99.90;;;19.58;70.70;101283.19;3500612;40;103248;-40
2021/07/03 06:41:20;;;;;;;9.05;6.43;;;20.40;99.90;;;19.93;70.10;101283.78;3501043;40;102877;-40
2021/07/03 06:43:47;;;;;;;9.70;6.50;;;20.60;99.90;;;20.02;65.86;101290.50;3500643;40;102371;-41
2021/07/03 06:46:15;;;;;;;10.93;6.43;;;20.70;99.90;;;20.04;65.85;101293.88;3500862;40;102722;-41
2021/07/03 06:48:42;;;;;;;9.00;6.10;;;20.80;99.90;;;20.17;65.52;101284.25;3501113;40;104133;-42
2021/07/03 06:51:10;;;;;;;13.00;6.75;;;20.80;99.90;;;20.32;63.23;101286.28;3500894;40;102223;-40
2021/07/03 06:53:37;;;;;;;12.48;6.97;;;21.10;99.90;;;20.43;62.99;101281.66;3500554;40;102276;-40
2021/07/03 06:56:05;;;;;;;11.18;6.47;;;21.20;99.90;;;20.60;65.41;101286.16;3500832;40;102792;-40
2021/07/03 06:58:32;;;;;;;;;;;21.30;99.90;;;20.74;63.40;101292.91;3501514;40;102327;-40
2021/07/03 07:01:00;;;;;;;10.23;5.63;;;21.40;99.90;;;20.92;62.26;101286.06;3501369;40;102223;-42
2021/07/03 07:03:27;;;;;;;8.90;5.88;;;21.60;99.90;;;21.03;62.51;101278.63;3636263;22;104113;-43
2021/07/03 07:05:55;;;;;;;9.00;5.70;;;21.70;99.90;;;21.29;65.53;101284.25;3516399;39;102441;-41
2021/07/03 07:08:22;;;;;;;9.15;6.13;;;21.90;99.90;;;21.32;61.08;101280.91;3520843;40;102643;-42
2021/07/03 07:10:50;;;;;;;9.80;5.60;;;22.00;99.90;;;21.37;59.59;101271.78;3520652;39;102275;-43
2021/07/03 07:13:17;;;;;;;11.15;6.05;;;22.10;99.90;;;21.45;60.23;101275.94;3520445;40;104179;-40
2021/07/03 07:15:45;;;;;;;9.10;5.80;;;22.20;99.90;;;21.49;58.18;101277.06;3520485;40;102451;-39
2021/07/03 07:18:12;;;;;;;7.72;5.50;;;22.30;99.90;;;21.61;58.93;101280.41;3519880;40;103167;-38
2021/07/03 07:20:40;;;;;;;10.82;6.45;;;22.30;99.90;;;21.65;59.14;101280.72;3520825;39;102124;-39
2021/07/03 07:23:07;;;;;;;9.48;6.10;;;22.40;99.90;;;21.88;60.01;101275.69;3520439;40;102441;-40
2021/07/03 07:25:35;;;;;;;8.10;5.55;;;22.50;99.90;;;21.90;56.42;101285.44;3519284;40;103874;-39
2021/07/03 07:28:03;;;;;;;;;;;22.70;99.90;;;21.92;57.99;101283.22;3521421;39;103204;-40
2021/07/03 07:30:30;;;;;;;8.32;5.47;;;22.70;99.90;;;21.79;58.16;101273.50;3520328;39;102400;-40
2021/07/03 07:32:58;;;;;;;8.88;5.30;;;22.60;99.90;;;21.86;59.00;101264.88;3520579;39;102308;-39
2021/07/03 07:35:28;;;;;;;7.95;5.60;;;22.60;99.90;;;21.89;56.25;101256.00;3520250;39;102454;-40
2021/07/03 07:37:55;;;;;;;8.45;5.53;;;22.60;99.90;;;21.92;55.84;101263.78;3520344;39;102211;-40
2021/07/03 07:40:23;;;;;;;9.00;5.82;;;22.70;99.90;;;22.19;56.10;101253.47;3520540;39;102216;-37
2021/07/03 07:42:50;;;;;;;7.20;5.22;;;22.90;99.90;;;22.32;55.58;101257.59;3520610;39;103072;-40
2021/07/03 07:45:17;;;;;;;8.07;5.20;;;23.00;99.90;;;22.50;56.35;101253.41;3520360;40;102481;-41
2021/07/03 07:47:47;;;;;;;8.20;5.35;;;23.10;99.90;;;22.46;54.67;101244.78;3520481;39;102222;-40
2021/07/03 07:50:15;;;;;;;8.30;5.22;;;23.20;99.90;;;22.48;56.16;101245.34;3521435;39;102322;-40
2021/07/03 07:52:43;;;;;;;7.03;5.20;;;23.20;99.90;;;22.60;53.67;101244.22;3521069;40;103261;-39
2021/07/03 07:55:12;;;;;;;8.18;4.97;;;23.20;99.90;;;22.77;55.71;101241.88;3520457;39;103354;-39
2021/07/03 07:57:39;;;;;;;6.55;4.80;;;23.40;99.90;;;22.92;55.77;101245.72;3520794;39;102210;-37
2021/07/03 08:00:08;;;;;;;;;;;23.50;99.90;;;22.94;54.59;101247.13;3521008;40;102357;-40
2021/07/03 08:02:40;;;;;;;6.88;4.65;;;23.60;99.90;;;23.06;54.12;101241.19;3520597;39;102220;-40
2021/07/03 08:05:09;;;;;;;7.40;4.93;;;23.70;99.90;;;23.04;52.58;101243.41;3520466;39;103044;-40
2021/07/03 08:07:37;;;;;;;9.15;5.05;;;23.70;99.90;;;22.97;53.82;101240.13;3520451;40;103131;-40
2021/07/03 08:10:06;;;;;;;8.23;5.03;;;23.70;99.90;;;23.23;54.38;101237.19;3520582;40;102494;-40
2021/07/03 08:12:33;;;;;;;6.43;4.70;;;23.90;99.90;;;23.23;52.09;101240.81;3520634;39;102265;-40
2021/07/03 08:15:02;;;;;;;7.25;4.45;;;23.90;99.90;;;23.40;51.53;101247.97;3520145;39;102346;-40
2021/07/03 08:17:29;;;;;;;7.25;5.18;;;24.00;99.90;;;23.59;54.16;101238.91;3520828;40;103247;-39
2021/07/03 08:19:58;;;;;;;7.75;4.97;;;24.20;99.90;;;23.73;51.97;101239.06;3520615;39;102436;-40
2021/07/03 08:22:25;;;;;;;7.90;4.57;;;24.30;99.90;;;23.91;55.10;101232.78;3520678;40;103135;-41
2021/07/03 08:24:53;;;;;;;;;;;24.50;99.90;;;23.94;50.36;101229.41;3521039;39;102537;-40
2021/07/03 08:27:20;;;;;;;6.93;4.38;;;24.50;99.90;;;23.97;50.99;101225.19;3520875;40;103266;-40
2021/07/03 08:29:48;;;;;;;7.65;4.97;;;24.60;99.90;;;23.97;50.49;101237.19;3520700;39;102943;-44
2021/07/03 08:32:15;;;;;;;7.10;5.18;;;24.60;99.90;;;23.80;51.51;101225.63;3520369;39;102251;-40
2021/07/03 08:34:42;;;;;;;7.82;5.20;;;24.50;99.90;;;23.84;52.12;101226.69;3520258;40;102409;-39
2021/07/03 08:37:10;;;;;;;9.27;4.88;;;24.50;99.90;;;24.09;51.30;101222.03;3520118;39;102293;-41
2021/07/03 08:39:37;;;;;;;7.30;4.78;;;24.70;99.90;;;24.26;49.77;101218.78;3520354;39;102500;-40
2021/07/03 08:42:06;;;;;;;6.20;4.38;;;24.80;99.90;;;24.33;50.02;101213.69;3520188;40;102327;-39
2021/07/03 08:44:36;;;;;;;7.38;4.50;;;24.90;99.90;;;24.36;49.56;101220.63;3520208;39;102356;-41
2021/07/03 08:47:05;;;;;;;7.40;4.43;;;25.00;99.90;;;24.51;49.01;101214.88;3520275;40;102391;-41
2021/07/03 08:49:33;;;;;;;7.85;4.55;;;25.10;99.90;;;24.59;47.22;101213.38;3519816;39;103498;-39
2021/07/03 08:52:00;;;;;;;7.97;5.03;;;25.10;99.90;;;24.64;48.54;101212.47;3520280;40;103167;-43
2021/07/03 08:54:28;;;;;;;;;;;25.20;99.90;;;24.67;46.33;101209.09;3521156;39;102483;-39
2021/07/03 08:57:00;;;;;;;6.47;4.10;;;25.30;99.90;;;24.62;49.25;101210.00;3520693;39;103279;-40
2021/07/03 08:59:30;;;;;;;8.07;4.47;;;25.30;99.90;;;24.71;49.17;101207.38;3520573;39;102387;-39
2021/07/03 09:02:00;;;;;;;7.07;4.38;;;25.30;99.90;;;24.81;48.64;101214.81;3520496;39;103275;-41
2021/07/03 09:04:42;;;;;;;7.60;4.70;;;25.40;99.90;;;24.81;46.35;101212.84;3520075;39;102346;-38
2021/07/03 09:07:18;;;;;;;5.43;3.88;;;25.50;99.90;;;24.93;47.05;101203.19;3520580;39;102349;-39
2021/07/03 09:09:54;;;;;;;6.13;4.05;;;25.50;99.90;;;24.91;46.46;101200.72;3520070;40;103351;-40
2021/07/03 09:12:34;;;;;;;6.07;4.10;;;25.60;99.70;;;24.94;48.08;101199.28;3520352;39;102384;-40
2021/07/03 09:15:17;;;;;;;7.38;4.78;;;25.60;99.90;;;25.05;46.14;101199.94;3520206;39;102565;-40
2021/07/03 09:18:01;;;;;;;6.00;4.35;;;25.70;99.20;;;25.12;45.84;101200.41;3520571;39;102663;-40
2021/07/03 09:20:42;;;;;;;7.55;4.70;;;25.70;98.90;;;25.10;46.35;101197.91;3520558;39;103396;-40
2021/07/03 09:23:19;;;;;;;6.13;4.40;;;25.70;99.30;;;25.10;42.15;101191.50;3520274;39;102150;-40
2021/07/03 09:25:54;;;;;;;5.95;4.30;;;25.70;95.60;;;25.35;45.24;101192.25;3520471;39;102946;-40
2021/07/03 09:28:25;;;;;;;6.75;4.00;;;25.80;98.20;;;25.28;43.46;101193.44;3520287;39;102357;-40
2021/07/03 09:30:56;;;;;;;6.25;4.03;;;25.90;96.70;;;25.23;44.02;101198.28;3520021;39;102516;-42
2021/07/03 09:33:32;;;;;;;6.47;3.80;;;25.90;96.00;;;25.43;40.10;101194.31;3520238;39;103164;-38
2021/07/03 09:36:08;;;;;;;5.70;3.78;;;26.00;93.30;;;25.47;40.20;101201.00;3520594;39;102295;-38
2021/07/03 09:38:48;;;;;;;6.40;4.45;;;26.10;92.90;;;25.26;44.89;101197.69;3520508;40;104140;-40
2021/07/03 09:41:20;;;;;;;8.13;4.47;;;25.90;96.50;;;25.40;42.65;101200.53;3519854;40;102474;-39
2021/07/03 09:43:51;;;;;;;7.43;5.10;;;;;;;25.45;47.21;101202.38;3520156;40;103480;-40
2021/07/03 09:46:47;;;;;;;8.55;5.85;;;26.00;94.80;;;25.65;45.19;101196.47;3519753;39;102386;-39
2021/07/03 09:49:18;;;;;;;5.30;3.63;;;;;;;25.79;42.75;101207.69;3519701;39;102358;-41
2021/07/03 09:51:52;;;;;;;6.68;3.63;;;;;;;25.84;40.77;101204.81;3519944;39;102497;-40
2021/07/03 09:54:24;;;;;;;5.43;3.72;;;;;;;25.98;44.55;101196.44;3519810;39;103045;-38
2021/07/03 09:56:59;;;;;;;5.95;4.05;;;;;;;25.99;41.53;101200.91;3520118;39;102190;-40
2021/07/03 09:59:29;;;;;;;7.97;4.75;;;;;;;26.09;43.48;101197.06;3520100;39;102775;-39
2021/07/03 10:01:57;;;;;;;5.97;4.00;;;;;;;26.24;41.66;101195.16;3520141;39;102847;-40
2021/07/03 10:04:25;;;;;;;6.90;4.25;;;;;;;26.32;44.75;101202.00;3519615;40;102549;-40
2021/07/03 10:07:06;;;;;;;6.25;4.35;;;;;;;26.38;46.27;101200.75;3519890;39;102898;-39
2021/07/03 10:09:57;;;;;;;6.18;4.55;;;;;;;26.14;43.94;101191.41;3519925;39;102913;-40
2021/07/03 10:12:32;;;;;;;6.20;4.32;;;;;;;26.31;42.95;101191.94;3520111;40;102489;-40
2021/07/03 10:15:00;;;;;;;5.75;3.85;;;;;;;26.30;41.97;101184.72;3519470;39;103143;-37
2021/07/03 10:17:31;;;;;;;6.63;4.20;;;;;;;26.40;47.29;101193.72;3519772;39;102434;-38